Accueil
METAR-TAF:

METAR-TAF

Aéroports :

Aéroport régional Les Éplatures

La Chaux-de-Fonds, Suisse

latitude: 47-05-03N, longitude: 006-47-37E, altitude: 1027 m

Observation

Le bulletin a été fait il y a 38 minutes, à 22:50 UTC
Vent calme
Température 11°C
Humidité 87%
Pression 1023 hPa
Visibilité 10 km ou plus

METAR: LSGC 172250Z AUTO 00000KT 9999 NCD 11/09 Q1023

Heure: 01:28 (23:28 UTC)

Prévision

Le bulletin a été fait il y a 9 heures et 3 minutes, à 14:25 UTC
Prévision valable du 17 à 15 UTC au 17 à 24 UTC
Vent 2 kt de direction variable
Visibilité 10 km ou plus
Nuages épars à une hauteur de 4500 ft
Evoluant progressivement
du 17 à 18 UTC au 17 à 20 UTC
Visibilité 10 km ou plus
pas de nuages en-dessous de 1500 mètres et pas de cumulonimbus.

TAF: LSGC 171425Z 1715/1724 VRB02KT 9999 SCT045 BECMG 1718/1720 CAVOK

Observations et prévisions météorologiques de plus de 4000 aéroports (messages METAR et TAF).

Les stations disponibles sont représentées par des disques jaunes et rouges sur la carte.

Passer la souris dessus pour voir le nom de la station.

Cliquer dessus pour voir les observations et prévisions météorologiques.

Pour changer de carte: cliquez sur les boutons verts avec une croix noire pour zoomer, sur le bouton vert avec un tiret pour effectuer un zoom arrière, ou sur les flèches vertes pour les cartes adjacentes.


METAR-TAF: